Time;durP1;ratioP1;P1;durP2;ratioP2;P2;SDS_P1;SDS_P2;PMS_P1;PMS_P2;Temp;Humidity;BMP_temperature;BMP_pressure;BME280_temperature;BME280_humidity;BME280_pressure;Samples;Min_cycle;Max_cycle;Signal;HPM_P1;HPM_P2
2023/10/09 00:02:11;;;;;;;13.38;6.15;;;;;;;14.36;100.00;101836.19;5035804;28;20029;-74
2023/10/09 00:04:40;;;;;;;22.90;8.35;;;;;;;14.37;100.00;101845.44;5045090;28;20029;-73
2023/10/09 00:07:09;;;;;;;16.92;8.38;;;;;;;14.32;100.00;101845.78;5021055;28;20046;-74
2023/10/09 00:09:47;;;;;;;15.85;7.80;;;;;;;14.32;100.00;101846.59;5029601;28;20462;-78
2023/10/09 00:12:23;;;;;;;23.80;8.38;;;;;;;14.36;100.00;101850.28;5027289;28;20021;-78
2023/10/09 00:14:50;;;;;;;16.45;8.20;;;;;;;14.36;100.00;101830.56;5046671;28;20086;-79
2023/10/09 00:17:19;;;;;;;19.85;8.25;;;;;;;14.34;100.00;101827.31;5028110;28;20039;-78
2023/10/09 00:19:47;;;;;;;17.50;9.10;;;;;;;14.26;100.00;101827.59;5038568;28;20804;-76
2023/10/09 00:22:26;;;;;;;26.50;11.90;;;;;;;14.22;100.00;101824.72;5026893;28;20029;-76
2023/10/09 00:25:11;;;;;;;21.90;10.82;;;;;;;14.22;100.00;101822.72;5025645;28;20078;-76
2023/10/09 00:27:51;;;;;;;21.77;9.60;;;;;;;14.27;100.00;101824.38;5022033;28;20054;-76
2023/10/09 00:30:21;;;;;;;26.33;10.90;;;;;;;14.30;100.00;101814.38;5044554;28;20087;-76
2023/10/09 00:33:00;;;;;;;21.77;10.25;;;;;;;14.33;100.00;101820.03;5034822;28;20037;-76
2023/10/09 00:35:36;;;;;;;23.83;9.85;;;;;;;14.36;100.00;101818.50;5039918;28;20572;-76
2023/10/09 00:40:47;;;;;;;27.80;12.55;;;;;;;14.39;100.00;101812.88;5048626;28;20032;-76
2023/10/09 00:43:19;;;;;;;29.38;12.57;;;;;;;14.19;100.00;101797.34;5025474;28;20061;-76
2023/10/09 00:45:46;;;;;;;30.30;14.98;;;;;;;14.24;100.00;101806.25;5042710;28;20035;-76
2023/10/09 00:48:23;;;;;;;36.08;14.75;;;;;;;14.30;100.00;101797.47;5043795;28;20033;-76
2023/10/09 00:50:52;;;;;;;31.73;13.63;;;;;;;14.22;100.00;101797.38;5042481;28;20539;-76
2023/10/09 00:53:30;;;;;;;35.33;15.85;;;;;;;14.28;100.00;101799.88;5046707;28;20048;-76
2023/10/09 00:55:57;;;;;;;28.30;13.32;;;;;;;14.22;100.00;101785.31;5047115;28;20071;-76
2023/10/09 00:58:30;;;;;;;29.08;13.57;;;;;;;14.25;100.00;101790.16;5041113;28;20083;-76
2023/10/09 01:00:56;;;;;;;28.25;12.85;;;;;;;14.28;100.00;101780.97;5039779;28;20484;-75
2023/10/09 01:03:22;;;;;;;34.72;16.30;;;;;;;14.31;100.00;101771.72;5044117;28;20029;-76
2023/10/09 01:05:57;;;;;;;34.85;15.18;;;;;;;14.23;100.00;101767.22;5043634;28;20507;-76
2023/10/09 01:08:32;;;;;;;35.45;16.88;;;;;;;14.27;100.00;101753.16;5040336;28;20029;-75
2023/10/09 01:11:08;;;;;;;35.13;14.57;;;;;;;14.27;100.00;101748.34;5026528;28;20043;-76
2023/10/09 01:13:52;;;;;;;45.47;16.92;;;;;;;14.27;100.00;101744.72;5028930;28;20111;-75
2023/10/09 01:16:21;;;;;;;40.90;18.08;;;;;;;14.27;100.00;101751.16;5037099;28;20136;-76
2023/10/09 01:18:51;;;;;;;42.97;18.15;;;;;;;14.29;100.00;101745.16;5043811;28;20025;-76
2023/10/09 01:21:18;;;;;;;39.13;16.83;;;;;;;14.26;100.00;101748.75;5043298;28;20047;-75
2023/10/09 01:26:39;;;;;;;48.50;19.60;;;;;;;14.28;100.00;101735.09;5042646;28;20036;-73
2023/10/09 01:29:10;;;;;;;44.85;19.13;;;;;;;14.30;100.00;101741.16;5042223;28;20039;-76
2023/10/09 01:31:43;;;;;;;43.45;19.67;;;;;;;14.30;100.00;101739.16;5025893;28;20067;-75
2023/10/09 01:34:09;;;;;;;44.15;20.52;;;;;;;14.37;100.00;101744.06;5041123;28;20032;-76
2023/10/09 01:36:39;;;;;;;46.42;20.23;;;;;;;14.37;100.00;101739.22;5029622;28;20122;-76
2023/10/09 01:39:23;;;;;;;45.35;21.15;;;;;;;14.40;100.00;101735.66;5025325;28;20040;-76
2023/10/09 01:41:52;;;;;;;35.58;17.50;;;;;;;14.40;100.00;101730.03;5040884;28;20484;-76
2023/10/09 01:44:18;;;;;;;41.50;19.67;;;;;;;14.42;100.00;101736.09;5027365;28;20067;-75
2023/10/09 01:46:47;;;;;;;49.92;22.02;;;;;;;14.42;100.00;101730.47;5045515;28;20045;-76
2023/10/09 01:49:21;;;;;;;41.88;18.60;;;;;;;14.46;100.00;101715.59;5043594;28;20081;-76
2023/10/09 01:51:48;;;;;;;47.85;20.13;;;;;;;14.40;100.00;101698.25;5038732;28;20057;-76
2023/10/09 01:54:33;;;;;;;48.13;20.60;;;;;;;14.40;100.00;101690.59;5059529;28;20083;-76
2023/10/09 01:57:05;;;;;;;46.70;20.25;;;;;;;14.48;100.00;101690.66;5045644;28;20033;-76
2023/10/09 01:59:31;;;;;;;54.63;20.85;;;;;;;14.52;100.00;101685.88;5037458;28;20106;-76
2023/10/09 02:01:58;;;;;;;42.15;19.83;;;;;;;14.49;100.00;101695.13;5038750;28;20037;-76
2023/10/09 02:04:23;;;;;;;49.60;21.42;;;;;;;14.57;100.00;101699.66;5019171;28;20066;-76
2023/10/09 02:06:52;;;;;;;39.65;19.50;;;;;;;14.57;100.00;101706.09;5023551;28;20025;-76
2023/10/09 02:09:28;;;;;;;39.40;19.10;;;;;;;14.55;100.00;101707.66;5050134;28;20534;-76
2023/10/09 02:11:54;;;;;;;44.08;20.15;;;;;;;14.60;100.00;101687.63;5036454;28;20026;-76
2023/10/09 02:14:20;;;;;;;48.05;20.52;;;;;;;14.58;100.00;101685.19;5028180;28;20068;-75
2023/10/09 02:17:02;;;;;;;43.28;20.23;;;;;;;14.61;100.00;101673.16;5044743;28;20025;-76
2023/10/09 02:19:31;;;;;;;37.38;17.92;;;;;;;14.63;100.00;101669.91;5046635;28;20424;-75
2023/10/09 02:22:01;;;;;;;44.55;19.85;;;;;;;14.61;100.00;101658.25;5042611;28;20036;-76
2023/10/09 02:24:28;;;;;;;44.70;20.63;;;;;;;14.63;100.00;101655.84;5043498;28;20048;-76
2023/10/09 02:29:23;;;;;;;50.38;21.70;;;;;;;14.66;100.00;101669.16;5044857;28;20021;-76
2023/10/09 02:31:51;;;;;;;47.13;19.95;;;;;;;14.73;100.00;101676.88;5036748;28;20032;-76
2023/10/09 02:34:21;;;;;;;45.97;19.02;;;;;;;14.69;100.00;101679.66;5037232;28;20037;-76
2023/10/09 02:36:57;;;;;;;40.17;19.70;;;;;;;14.72;100.00;101673.25;5049542;28;20037;-76
2023/10/09 02:39:28;;;;;;;45.17;17.70;;;;;;;14.79;100.00;101684.59;5019236;28;20485;-73
2023/10/09 02:44:46;;;;;;;42.42;17.75;;;;;;;14.76;100.00;101688.19;5045280;28;20480;-74
2023/10/09 02:47:18;;;;;;;38.78;19.17;;;;;;;14.81;100.00;101682.19;5043721;28;20033;-75
2023/10/09 02:49:43;;;;;;;40.92;19.88;;;;;;;14.76;100.00;101673.31;5036204;28;20048;-74
2023/10/09 02:52:10;;;;;;;46.95;20.13;;;;;;;14.82;100.00;101672.56;5049699;28;20063;-74
2023/10/09 02:54:41;;;;;;;45.30;19.95;;;;;;;14.83;100.00;101668.53;5043526;28;20867;-76
2023/10/09 02:57:15;;;;;;;43.15;18.35;;;;;;;14.75;100.00;101658.38;5039098;28;20032;-75
2023/10/09 02:59:44;;;;;;;47.33;22.38;;;;;;;14.83;100.00;101643.16;5047879;28;20037;-74
2023/10/09 03:02:10;;;;;;;40.58;18.05;;;;;;;14.82;100.00;101647.19;5047501;28;20021;-76
2023/10/09 03:04:38;;;;;;;37.72;18.58;;;;;;;14.84;100.00;101646.78;5042118;28;20514;-75
2023/10/09 03:07:04;;;;;;;44.50;19.08;;;;;;;14.83;100.00;101645.97;5053100;28;20024;-76
2023/10/09 03:09:31;;;;;;;43.38;20.40;;;;;;;14.89;100.00;101651.28;5050495;28;20021;-74
2023/10/09 03:12:02;;;;;;;45.17;18.90;;;;;;;14.84;100.00;101647.63;5049958;28;20518;-74
2023/10/09 03:14:32;;;;;;;43.80;18.95;;;;;;;14.87;100.00;101646.00;5043665;28;20029;-74
2023/10/09 03:16:58;;;;;;;43.50;18.67;;;;;;;14.81;100.00;101642.72;5049784;28;20030;-74
2023/10/09 03:19:37;;;;;;;44.28;18.73;;;;;;;14.87;100.00;101645.22;5033095;28;20447;-73
2023/10/09 03:22:03;;;;;;;38.90;17.02;;;;;;;14.83;100.00;101640.34;5043133;28;20087;-74
2023/10/09 03:24:28;;;;;;;45.25;18.77;;;;;;;14.86;100.00;101633.09;5048587;28;20056;-74
2023/10/09 03:26:55;;;;;;;41.22;18.25;;;;;;;14.92;100.00;101636.38;5049266;28;20157;-74
2023/10/09 03:29:21;;;;;;;41.78;19.23;;;;;;;14.89;100.00;101625.91;5041450;28;20026;-74
2023/10/09 03:31:50;;;;;;;46.13;20.60;;;;;;;14.90;100.00;101631.13;5028737;28;20040;-75
2023/10/09 03:34:16;;;;;;;44.22;20.23;;;;;;;14.90;100.00;101624.69;5029186;28;20143;-74
2023/10/09 03:36:43;;;;;;;38.60;18.83;;;;;;;14.84;100.00;101630.69;5048526;28;20560;-75
2023/10/09 03:42:11;;;;;;;37.17;17.98;;;;;;;14.88;100.00;101636.34;5003650;28;20045;-78
2023/10/09 03:44:41;;;;;;;47.40;19.30;;;;;;;14.96;100.00;101648.50;5028918;28;20116;-78
2023/10/09 03:47:09;;;;;;;41.97;18.77;;;;;;;14.93;100.00;101643.66;5018554;28;20040;-78
2023/10/09 03:49:38;;;;;;;49.30;19.85;;;;;;;15.02;100.00;101649.78;5045874;28;20095;-78
2023/10/09 03:52:06;;;;;;;47.38;20.20;;;;;;;14.99;100.00;101653.38;5034647;28;20477;-78
2023/10/09 03:54:32;;;;;;;45.70;19.60;;;;;;;14.99;100.00;101659.03;5032211;28;20029;-77
2023/10/09 03:56:58;;;;;;;39.28;19.30;;;;;;;15.00;100.00;101661.44;5053280;28;20036;-78
2023/10/09 03:59:26;;;;;;;33.00;16.35;;;;;;;14.94;100.00;101659.34;5046518;28;20060;-79
2023/10/09 04:01:53;;;;;;;40.22;17.98;;;;;;;15.06;100.00;101667.53;5040376;28;20067;-78
2023/10/09 04:04:22;;;;;;;35.85;18.65;;;;;;;15.09;100.00;101661.09;5024707;28;20089;-78
2023/10/09 04:06:48;;;;;;;49.22;21.42;;;;;;;15.11;100.00;101661.50;5031534;28;20044;-78
2023/10/09 04:10:26;;;;;;;35.50;17.10;;;;;;;15.04;100.00;101656.63;5035953;28;20020;-79
2023/10/09 04:14:54;;;;;;;37.95;18.38;;;;;;;15.11;100.00;101653.06;5051618;28;20037;-78
2023/10/09 04:19:48;;;;;;;36.28;16.58;;;;;;;15.06;100.00;101653.44;5045438;28;20025;-78
2023/10/09 04:22:26;;;;;;;34.92;17.52;;;;;;;15.11;100.00;101660.72;5031816;28;20044;-78
2023/10/09 04:24:52;;;;;;;39.60;17.48;;;;;;;15.08;100.00;101648.22;5044338;28;20125;-78
2023/10/09 04:27:17;;;;;;;32.30;15.90;;;;;;;15.11;100.00;101655.88;5038446;28;20115;-78
2023/10/09 04:29:47;;;;;;;38.50;16.73;;;;;;;15.09;100.00;101649.00;5046819;28;20112;-77
2023/10/09 04:32:18;;;;;;;43.92;20.38;;;;;;;15.16;100.00;101664.00;5042694;28;20029;-78
2023/10/09 04:34:56;;;;;;;39.15;16.73;;;;;;;15.19;100.00;101646.28;5050558;28;20043;-78
2023/10/09 04:37:36;;;;;;;36.97;17.23;;;;;;;15.20;100.00;101656.38;5022736;28;20038;-77
2023/10/09 04:42:58;;;;;;;36.40;16.80;;;;;;;15.21;100.00;101666.44;5042383;28;20399;-78
2023/10/09 04:48:08;;;;;;;39.72;16.35;;;;;;;15.20;100.00;101659.19;5038163;28;20055;-77
2023/10/09 04:53:47;;;;;;;38.20;17.90;;;;;;;15.24;100.00;101648.75;5044496;28;20029;-74
2023/10/09 04:55:54;;;;;;;31.17;16.05;;;;;;;15.20;100.00;101664.84;5032065;28;20452;-75
2023/10/09 04:58:26;;;;;;;33.22;17.50;;;;;;;15.23;100.00;101657.59;5023314;28;20032;-74
2023/10/09 05:09:08;;;;;;;36.97;16.05;;;;;;;15.26;100.00;101679.34;4980973;28;20136;-75
2023/10/09 05:11:52;;;;;;;32.88;18.23;;;;;;;15.31;100.00;101701.56;5019082;28;20416;-75
2023/10/09 05:14:26;;;;;;;33.72;16.05;;;;;;;15.25;100.00;101705.97;5034460;28;20033;-75
2023/10/09 05:16:55;;;;;;;35.72;17.15;;;;;;;15.25;100.00;101698.28;5036597;28;20677;-73
2023/10/09 05:22:16;;;;;;;32.65;14.68;;;;;;;15.28;100.00;101695.91;5041011;28;20102;-73
2023/10/09 05:24:47;;;;;;;35.85;16.52;;;;;;;15.27;100.00;101692.28;5019985;28;20037;-74
2023/10/09 05:27:18;;;;;;;31.90;16.67;;;;;;;15.24;100.00;101702.34;5023872;28;20058;-73
2023/10/09 05:29:59;;;;;;;40.20;16.43;;;;;;;15.23;100.00;101703.50;5003251;28;20124;-74
2023/10/09 05:32:34;;;;;;;29.63;15.00;;;;;;;15.20;100.00;101709.94;5010153;28;20493;-75
2023/10/09 05:37:32;;;;;;;33.17;15.07;;;;;;;15.25;100.00;101709.56;5009717;28;20037;-76
2023/10/09 05:48:06;;;;;;;34.28;16.70;;;;;;;15.27;100.00;101705.56;5017958;28;20081;-75
2023/10/09 05:50:35;;;;;;;37.85;18.52;;;;;;;15.33;100.00;101712.47;5008050;28;20481;-77
2023/10/09 06:03:53;;;;;;;28.45;13.50;;;;;;;15.50;100.00;101694.06;5013576;28;20041;-74
2023/10/09 06:06:42;;;;;;;32.67;14.68;;;;;;;15.47;100.00;101683.53;4998781;28;20057;-73
2023/10/09 06:11:49;;;;;;;31.90;14.25;;;;;;;15.47;100.00;101678.72;5017658;28;20037;-74
2023/10/09 06:14:31;;;;;;;28.90;14.25;;;;;;;15.45;100.00;101686.75;5025730;28;20045;-73
2023/10/09 06:17:15;;;;;;;22.90;12.88;;;;;;;15.48;100.00;101713.41;5027552;28;20112;-75
2023/10/09 06:19:43;;;;;;;30.27;13.13;;;;;;;15.47;100.00;101714.59;5017899;28;20434;-74
2023/10/09 06:24:42;;;;;;;25.95;13.68;;;;;;;15.52;100.00;101700.94;5017335;28;20116;-76
2023/10/09 06:29:38;;;;;;;27.67;12.40;;;;;;;15.51;100.00;101706.97;5038795;28;20017;-74
2023/10/09 06:32:34;;;;;;;24.10;12.02;;;;;;;15.58;100.00;101709.81;5043309;28;20028;-73
2023/10/09 06:35:17;;;;;;;22.90;11.80;;;;;;;15.61;100.00;101704.22;5044401;28;20540;-73
2023/10/09 06:45:57;;;;;;;21.30;10.98;;;;;;;15.63;100.00;101715.09;5040183;28;20083;-73
2023/10/09 06:57:12;;;;;;;18.40;9.52;;;;;;;15.64;100.00;101694.97;5038009;28;20036;-73
2023/10/09 06:59:21;;;;;;;18.42;9.98;;;;;;;15.59;100.00;101691.69;5047305;28;20037;-74
2023/10/09 07:06:59;;;;;;;23.80;10.77;;;;;;;15.68;100.00;101689.31;5044508;28;20028;-74
2023/10/09 07:09:41;;;;;;;20.60;10.27;;;;;;;15.67;100.00;101698.22;5031949;28;20033;-76
2023/10/09 07:12:11;;;;;;;;;;;;;;;15.62;100.00;101699.38;5030266;28;20219;-76
2023/10/09 07:17:15;;;;;;;19.63;10.07;;;;;;;15.75;100.00;101697.09;5035762;28;20110;-76
2023/10/09 07:24:56;;;;;;;19.95;9.43;;;;;;;15.78;100.00;101702.72;5038797;28;20025;-76
2023/10/09 07:38:14;;;;;;;18.70;8.80;;;;;;;15.89;100.00;101705.63;5046711;28;20007;-76
2023/10/09 07:49:12;;;;;;;18.80;8.50;;;;;;;16.02;100.00;101686.31;5047597;28;20120;-76
2023/10/09 07:51:43;;;;;;;15.68;7.47;;;;;;;15.97;100.00;101673.41;5051125;28;20041;-75
2023/10/09 07:54:09;;;;;;;17.05;8.45;;;;;;;16.04;100.00;101667.78;5047140;28;20029;-76
2023/10/09 07:56:43;;;;;;;20.00;8.15;;;;;;;16.09;100.00;101665.81;5042011;28;20068;-76
2023/10/09 07:59:11;;;;;;;26.13;10.27;;;;;;;16.16;100.00;101691.25;5036491;28;20030;-76
2023/10/09 08:01:54;;;;;;;17.98;8.88;;;;;;;16.17;100.00;101690.00;5031176;28;20037;-76
2023/10/09 08:04:37;;;;;;;22.50;9.30;;;;;;;16.10;100.00;101698.47;5017944;28;20469;-76
2023/10/09 08:07:19;;;;;;;15.32;8.63;;;;;;;16.21;100.00;101696.50;5045207;28;20024;-76
2023/10/09 08:11:35;;;;;;;16.95;8.93;;;;;;;16.18;100.00;101694.47;5029539;28;20040;-76
2023/10/09 08:18:03;;;;;;;18.90;9.68;;;;;;;16.32;100.00;101659.81;5051204;28;20494;-76
2023/10/09 08:20:45;;;;;;;20.80;8.80;;;;;;;16.30;100.00;101673.56;5056226;28;20037;-78
2023/10/09 08:23:22;;;;;;;16.85;7.18;;;;;;;16.17;100.00;101684.38;5038892;28;20063;-78
2023/10/09 08:26:12;;;;;;;15.05;7.03;;;;;;;16.22;100.00;101718.69;5036035;28;20440;-77
2023/10/09 08:31:19;;;;;;;15.52;7.88;;;;;;;16.43;100.00;101734.94;5039588;28;20044;-78
2023/10/09 08:33:58;;;;;;;12.40;7.50;;;;;;;16.39;100.00;101733.31;5049708;28;20081;-77
2023/10/09 08:36:28;;;;;;;19.02;9.38;;;;;;;16.39;100.00;101745.41;5023337;28;20148;-78
2023/10/09 08:38:58;;;;;;;14.35;7.25;;;;;;;16.37;100.00;101749.84;5035883;28;20125;-78
2023/10/09 08:41:25;;;;;;;15.00;8.57;;;;;;;16.41;100.00;101764.81;5049857;28;20032;-77
2023/10/09 08:43:52;;;;;;;20.67;8.05;;;;;;;16.34;100.00;101798.66;5043201;28;20028;-77
2023/10/09 08:46:28;;;;;;;18.95;7.95;;;;;;;16.40;100.00;101788.59;5041233;28;20513;-78
2023/10/09 08:48:56;;;;;;;14.32;8.30;;;;;;;16.44;100.00;101787.44;5046855;28;20124;-78
2023/10/09 08:51:25;;;;;;;19.10;9.32;;;;;;;16.35;100.00;101784.13;5036742;28;20034;-77
2023/10/09 08:53:52;;;;;;;18.85;9.35;;;;;;;16.57;100.00;101789.88;5028223;28;20035;-77
2023/10/09 08:56:23;;;;;;;19.42;10.23;;;;;;;16.48;100.00;101783.78;5040049;28;20075;-78
2023/10/09 08:58:59;;;;;;;24.90;8.95;;;;;;;16.52;100.00;101807.22;5049645;28;20107;-78
2023/10/09 09:01:25;;;;;;;17.40;8.63;;;;;;;16.52;100.00;101807.22;5039237;28;20041;-78
2023/10/09 09:03:55;;;;;;;22.33;8.15;;;;;;;16.53;100.00;101806.84;5042332;28;20025;-78
2023/10/09 09:06:23;;;;;;;15.02;7.90;;;;;;;16.52;100.00;101812.88;5051801;28;20464;-77
2023/10/09 09:08:49;;;;;;;16.15;8.25;;;;;;;16.54;100.00;101818.94;5050724;28;20116;-77
2023/10/09 09:11:25;;;;;;;18.40;8.00;;;;;;;16.49;100.00;101810.88;5045927;28;20029;-78
2023/10/09 09:13:53;;;;;;;13.68;6.85;;;;;;;16.47;100.00;101822.56;5034646;28;20416;-77
2023/10/09 09:16:20;;;;;;;15.38;6.85;;;;;;;16.53;100.00;101820.13;5057893;28;20496;-78
2023/10/09 09:18:51;;;;;;;14.68;7.72;;;;;;;16.64;100.00;101815.38;5045826;28;20044;-77
2023/10/09 09:21:24;;;;;;;20.63;6.65;;;;;;;16.60;100.00;101803.22;5022390;28;20115;-77
2023/10/09 09:24:01;;;;;;;13.20;6.00;;;;;;;16.50;100.00;101801.16;5046787;28;20028;-78
2023/10/09 09:26:44;;;;;;;16.92;8.07;;;;;;;16.74;100.00;101803.28;5047639;28;20033;-77
2023/10/09 09:29:11;;;;;;;18.30;6.68;;;;;;;16.69;100.00;101808.50;5025398;28;20129;-75
2023/10/09 09:31:41;;;;;;;14.75;6.07;;;;;;;16.60;100.00;101817.38;5014948;28;20030;-75
2023/10/09 09:34:16;;;;;;;19.33;7.43;;;;;;;16.70;100.00;101810.94;5019279;28;20029;-75
2023/10/09 09:36:54;;;;;;;17.33;7.47;;;;;;;16.67;100.00;101806.06;5018981;28;20041;-76
2023/10/09 09:39:29;;;;;;;17.02;6.65;;;;;;;16.71;100.00;101812.56;5015094;28;20500;-75
2023/10/09 09:42:04;;;;;;;19.80;6.38;;;;;;;16.78;100.00;101806.94;5023301;28;20037;-75
2023/10/09 09:44:43;;;;;;;14.00;6.28;;;;;;;16.78;100.00;101809.78;5026461;28;20029;-75
2023/10/09 09:47:13;;;;;;;20.60;6.88;;;;;;;16.78;100.00;101806.94;5034832;28;20040;-75
2023/10/09 09:49:41;;;;;;;11.38;5.22;;;;;;;16.77;100.00;101810.97;5027028;28;20108;-75
2023/10/09 09:52:12;;;;;;;19.45;6.10;;;;;;;16.86;100.00;101811.47;5033207;28;20060;-74
2023/10/09 09:54:39;;;;;;;15.57;6.20;;;;;;;16.83;100.00;101811.44;5030981;28;20464;-75
2023/10/09 09:57:10;;;;;;;15.48;5.47;;;;;;;16.82;100.00;101818.28;5027572;28;20120;-75
2023/10/09 09:59:55;;;;;;;16.50;5.50;;;;;;;16.79;100.00;101814.22;5032537;28;20034;-75
2023/10/09 10:02:28;;;;;;;15.82;8.02;;;;;;;16.93;100.00;101813.50;5027238;28;20489;-76
2023/10/09 10:04:57;;;;;;;12.43;5.38;;;;;;;16.94;100.00;101808.63;5034499;28;20328;-74
2023/10/09 10:07:25;;;;;;;17.25;5.45;;;;;;;17.00;100.00;101804.22;5034805;28;20029;-75
2023/10/09 10:09:54;;;;;;;13.52;5.85;;;;;;;16.96;100.00;101801.38;5023131;28;20025;-75
2023/10/09 10:12:48;;;;;;;15.07;6.43;;;;;;;17.11;100.00;101807.88;5009782;28;20060;-75
2023/10/09 10:15:16;;;;;;;11.95;5.97;;;;;;;17.06;100.00;101811.09;5023718;28;20057;-75
2023/10/09 10:17:58;;;;;;;14.07;6.22;;;;;;;17.18;100.00;101812.72;5010279;28;20043;-75
2023/10/09 10:22:50;;;;;;;18.38;5.65;;;;;;;17.11;100.00;101819.19;5033364;28;19944;-75
2023/10/09 10:25:41;;;;;;;11.15;5.78;;;;;;;17.05;100.00;101818.78;5024275;28;20112;-74
2023/10/09 10:28:38;;;;;;;15.93;6.65;;;;;;;17.24;100.00;101811.97;5039996;28;20077;-76
2023/10/09 10:31:09;;;;;;;12.45;5.30;;;;;;;17.25;100.00;101799.41;5047180;28;20025;-74
2023/10/09 10:33:55;;;;;;;13.57;6.45;;;;;;;17.35;100.00;101805.47;5050434;28;20024;-75
2023/10/09 10:36:26;;;;;;;13.40;5.72;;;;;;;17.30;100.00;101808.72;5038461;28;20576;-75
2023/10/09 10:39:11;;;;;;;14.38;5.78;;;;;;;17.32;100.00;101807.09;5042243;28;20028;-76
2023/10/09 10:41:50;;;;;;;15.20;5.75;;;;;;;17.38;100.00;101790.53;5049940;28;20025;-74
2023/10/09 10:44:41;;;;;;;11.35;5.50;;;;;;;17.50;100.00;101794.97;5057028;28;20560;-73
2023/10/09 10:47:56;;;;;;;12.75;5.22;;;;;;;17.54;100.00;101802.28;5035252;28;20472;-73
2023/10/09 10:49:58;;;;;;;11.35;5.18;;;;;;;17.49;100.00;101811.16;5038435;28;20037;-77
2023/10/09 10:52:44;;;;;;;10.30;5.00;;;;;;;17.49;100.00;101802.66;5054938;28;20017;-78
2023/10/09 10:58:10;;;;;;;;;;;;;;;17.50;100.00;101815.63;5017916;28;20052;-77
2023/10/09 11:03:29;;;;;;;13.15;5.05;;;;;;;17.52;100.00;101827.34;5052461;28;20064;-78
2023/10/09 11:06:14;;;;;;;19.05;6.40;;;;;;;17.52;100.00;101833.00;5026509;28;20035;-78
2023/10/09 11:08:54;;;;;;;13.63;5.25;;;;;;;17.52;100.00;101837.84;5010764;28;20144;-77
2023/10/09 11:11:20;;;;;;;14.00;6.35;;;;;;;17.54;100.00;101841.91;5042386;28;20029;-77
2023/10/09 11:13:58;;;;;;;11.23;5.32;;;;;;;17.44;100.00;101835.00;5024105;28;20060;-78
2023/10/09 11:16:41;;;;;;;12.48;6.68;;;;;;;17.51;100.00;101836.22;5044413;28;20374;-77
2023/10/09 11:21:58;;;;;;;20.80;6.20;;;;;;;17.51;100.00;101845.53;5042808;28;20032;-77
2023/10/09 11:24:33;;;;;;;18.02;6.28;;;;;;;17.52;100.00;101850.00;5027746;28;20507;-78
2023/10/09 11:27:05;;;;;;;19.17;6.10;;;;;;;17.59;100.00;101858.47;5042481;28;20053;-77
2023/10/09 11:30:21;;;;;;;15.18;5.72;;;;;;;17.52;100.00;101849.16;5049391;28;20076;-78
2023/10/09 11:32:25;;;;;;;22.73;7.13;;;;;;;17.60;100.00;101843.13;5031230;28;20040;-78
2023/10/09 11:35:21;;;;;;;13.90;6.40;;;;;;;17.60;100.00;101857.28;5026101;28;20025;-77
2023/10/09 11:37:55;;;;;;;14.38;5.55;;;;;;;17.53;100.00;101845.94;5037965;28;20446;-78
2023/10/09 11:41:03;;;;;;;25.38;6.97;;;;;;;17.59;100.00;101855.66;5043815;28;20033;-78
2023/10/09 11:43:53;;;;;;;14.43;5.53;;;;;;;17.51;100.00;101842.69;5045439;28;20849;-78
2023/10/09 11:46:11;;;;;;;17.05;6.45;;;;;;;17.44;100.00;101849.16;5043850;28;20066;-78
2023/10/09 11:48:49;;;;;;;19.27;6.88;;;;;;;17.44;100.00;101854.03;5041275;28;20028;-76
2023/10/09 11:51:21;;;;;;;18.92;6.60;;;;;;;17.40;100.00;101850.38;5040068;28;20501;-75
2023/10/09 11:53:49;;;;;;;14.63;6.20;;;;;;;17.40;100.00;101867.34;5054977;28;20480;-76
2023/10/09 11:56:17;;;;;;;18.63;6.00;;;;;;;17.38;100.00;101861.28;5041848;28;20029;-76
2023/10/09 11:58:43;;;;;;;16.67;7.10;;;;;;;17.32;100.00;101858.03;5040761;28;20035;-75
2023/10/09 12:01:22;;;;;;;14.75;7.53;;;;;;;17.36;100.00;101853.19;5048538;28;20041;-74
2023/10/09 12:03:49;;;;;;;18.42;6.93;;;;;;;17.37;100.00;101862.47;5049182;28;20246;-75
2023/10/09 12:06:18;;;;;;;15.00;6.20;;;;;;;17.39;100.00;101851.56;5042465;28;20033;-75
2023/10/09 12:08:48;;;;;;;12.68;6.30;;;;;;;17.47;100.00;101841.88;5040495;28;20485;-75
2023/10/09 12:11:14;;;;;;;16.83;7.70;;;;;;;17.49;100.00;101828.13;5035880;28;20547;-76
2023/10/09 12:13:42;;;;;;;12.27;5.80;;;;;;;17.61;100.00;101809.97;5044482;28;20366;-75
2023/10/09 12:16:09;;;;;;;13.02;5.97;;;;;;;17.57;100.00;101821.28;5016786;28;20487;-76
2023/10/09 12:18:34;;;;;;;18.08;5.80;;;;;;;17.65;100.00;101808.75;5027212;28;20046;-74
2023/10/09 12:21:04;;;;;;;14.07;5.75;;;;;;;17.79;100.00;101810.78;5047347;28;20068;-74
2023/10/09 12:23:35;;;;;;;15.95;6.82;;;;;;;17.79;100.00;101818.44;5054713;28;20055;-75
2023/10/09 12:26:01;;;;;;;14.15;6.25;;;;;;;17.75;100.00;101806.31;5046061;28;20029;-76
2023/10/09 12:28:28;;;;;;;13.07;6.70;;;;;;;17.80;100.00;101820.06;5058823;28;20059;-75
2023/10/09 12:30:53;;;;;;;27.23;6.78;;;;;;;17.83;100.00;101817.25;5055040;28;20102;-75
2023/10/09 12:33:27;;;;;;;13.48;6.32;;;;;;;17.97;100.00;101829.81;5052972;28;20403;-74
2023/10/09 12:35:58;;;;;;;13.90;6.10;;;;;;;17.99;100.00;101824.53;5043303;28;20036;-75
2023/10/09 12:38:31;;;;;;;16.10;6.50;;;;;;;18.00;100.00;101829.78;5033088;28;20040;-75
2023/10/09 12:41:07;;;;;;;;;;;;;;;18.00;100.00;101811.97;5024887;28;20025;-75
2023/10/09 12:43:37;;;;;;;10.02;5.38;;;;;;;17.91;100.00;101809.56;5040284;28;19956;-74
2023/10/09 12:46:06;;;;;;;16.98;6.88;;;;;;;18.07;100.00;101812.78;5036242;28;20506;-76
2023/10/09 12:48:31;;;;;;;12.20;5.40;;;;;;;18.16;100.00;101809.53;5035024;28;20028;-76
2023/10/09 12:50:57;;;;;;;14.45;4.72;;;;;;;18.19;100.00;101811.53;5038678;28;20036;-75
2023/10/09 12:53:22;;;;;;;12.75;6.40;;;;;;;18.13;100.00;101820.84;5022332;28;20529;-76
2023/10/09 12:55:48;;;;;;;11.90;6.45;;;;;;;18.12;100.00;101814.38;5024782;28;20033;-76
2023/10/09 12:58:18;;;;;;;19.23;5.75;;;;;;;18.17;100.00;101818.81;5035154;28;20075;-76
2023/10/09 13:00:49;;;;;;;12.00;5.20;;;;;;;18.17;100.00;101827.31;5022744;28;20028;-75
2023/10/09 13:03:16;;;;;;;15.05;6.13;;;;;;;18.10;100.00;101816.81;5042252;28;20087;-74
2023/10/09 13:05:56;;;;;;;12.25;5.28;;;;;;;18.12;100.00;101813.59;5043490;28;20115;-74
2023/10/09 13:08:23;;;;;;;13.25;5.57;;;;;;;18.09;100.00;101815.22;5039716;28;20492;-72
2023/10/09 13:11:00;;;;;;;10.88;4.85;;;;;;;18.23;100.00;101817.19;5042909;28;23002;-78
2023/10/09 13:13:41;;;;;;;11.38;4.97;;;;;;;18.23;100.00;101817.19;5040363;28;20114;-77
2023/10/09 13:16:12;;;;;;;10.48;4.63;;;;;;;18.23;100.00;101826.50;5021145;28;20059;-77
2023/10/09 13:18:49;;;;;;;13.70;5.03;;;;;;;18.15;100.00;101824.91;5030944;28;20056;-75
2023/10/09 13:21:19;;;;;;;12.73;4.78;;;;;;;18.12;100.00;101822.88;5033093;28;20048;-78
2023/10/09 13:23:46;;;;;;;14.35;6.45;;;;;;;18.22;100.00;101829.75;5012833;28;20124;-76
2023/10/09 13:26:32;;;;;;;16.10;6.50;;;;;;;18.16;100.00;101834.22;5022882;28;20132;-75
2023/10/09 13:28:59;;;;;;;13.82;5.40;;;;;;;18.06;100.00;101830.97;5041748;28;20056;-77
2023/10/09 13:31:25;;;;;;;13.48;5.85;;;;;;;18.02;100.00;101827.34;5036220;28;20051;-77
2023/10/09 13:33:55;;;;;;;11.95;5.85;;;;;;;18.03;100.00;101817.66;5037276;28;20456;-76
2023/10/09 13:36:31;;;;;;;14.32;6.40;;;;;;;18.03;100.00;101823.31;5041231;28;20496;-76
2023/10/09 13:41:47;;;;;;;17.52;6.57;;;;;;;18.08;100.00;101825.72;5041493;28;20560;-76
2023/10/09 13:44:13;;;;;;;18.58;7.35;;;;;;;18.10;100.00;101827.34;5026602;28;20396;-76
2023/10/09 13:46:41;;;;;;;11.00;5.28;;;;;;;18.06;100.00;101827.34;5037220;28;20112;-76
2023/10/09 13:49:14;;;;;;;12.45;5.38;;;;;;;18.14;100.00;101828.16;5028851;28;20539;-77